Time;durP1;ratioP1;P1;durP2;ratioP2;P2;SDS_P1;SDS_P2;PMS_P1;PMS_P2;Temp;Humidity;BMP_temperature;BMP_pressure;BME280_temperature;BME280_humidity;BME280_pressure;Samples;Min_cycle;Max_cycle;Signal;HPM_P1;HPM_P2
2023/06/18 05:27:37;;;;;;;;;;;;;;;23.61;42.14;96685.03;4252218;27;10289;-70
2023/06/18 05:29:40;;;;;;;;;;;;;;;23.98;41.53;96689.91;4239457;27;5798;-70
2023/06/18 05:31:43;;;;;;;;;;;;;;;24.34;41.13;96699.38;4235855;27;5611;-70
2023/06/18 05:33:46;;;;;;;;;;;;;;;24.64;41.06;96700.19;4233541;27;5688;-71
2023/06/18 05:35:49;;;;;;;;;;;;;;;24.90;40.62;96706.94;4236908;27;5988;-71
2023/06/18 05:37:53;;;;;;;;;;;;;;;25.13;40.27;96704.56;4237645;27;5618;-68
2023/06/18 05:39:55;;;;;;;;;;;;;;;25.32;39.73;96712.75;4234908;27;5784;-68
2023/06/18 05:41:58;;;;;;;;;;;;;;;25.50;39.90;96718.19;4235607;27;5627;-67
2023/06/18 05:44:02;;;;;;;;;;;;;;;25.67;39.30;96722.31;4237363;27;5699;-67
2023/06/18 05:46:05;;;;;;;;;;;;;;;25.81;39.63;96725.91;4235487;27;6717;-67
2023/06/18 05:48:09;;;;;;;;;;;;;;;25.96;39.24;96727.63;4236742;27;5624;-68
2023/06/18 05:50:12;;;;;;;;;;;;;;;26.07;39.39;96724.47;4236375;27;6298;-68
2023/06/18 05:52:15;;;;;;;;;;;;;;;26.17;39.36;96728.94;4236686;27;5810;-68
2023/06/18 05:54:18;;;;;;;;;;;;;;;26.28;39.35;96735.00;4220303;27;5562;-68
2023/06/18 05:56:21;;;;;;;;;;;;;;;26.38;39.19;96740.25;4236825;27;5703;-68
2023/06/18 05:58:24;;;;;;;;;;;;;;;26.45;38.97;96740.69;4236036;27;5927;-68
2023/06/18 06:00:28;;;;;;;;;;;;;;;26.51;38.86;96739.53;4235941;27;5747;-68
2023/06/18 06:02:32;;;;;;;;;;;;;;;26.55;38.92;96740.53;4236064;27;5623;-68
2023/06/18 06:04:34;;;;;;;;;;;;;;;26.59;39.04;96746.16;4237905;27;5692;-68
2023/06/18 06:06:37;;;;;;;;;;;;;;;26.62;38.88;96746.41;4238869;27;5775;-68
2023/06/18 06:08:40;;;;;;;;;;;;;;;26.65;39.17;96736.84;4238976;27;5798;-68
2023/06/18 06:10:44;;;;;;;;;;;;;;;26.66;38.93;96736.56;4235125;27;5692;-68
2023/06/18 06:12:47;;;;;;;;;;;;;;;26.68;38.96;96737.06;4236261;27;5623;-67
2023/06/18 06:14:50;;;;;;;;;;;;;;;26.72;39.03;96731.03;4236373;27;5601;-67
2023/06/18 06:16:57;;;;;;;;;;;;;;;26.74;38.87;96726.94;4234546;27;5695;-67
2023/06/18 06:19:00;;;;;;;;;;;;;;;26.77;38.55;96728.25;4235070;27;5601;-67
2023/06/18 06:21:03;;;;;;;;;;;;;;;26.79;38.31;96723.31;4237629;27;5708;-68
2023/06/18 06:23:06;;;;;;;;;;;;;;;26.80;38.49;96716.78;4234974;27;5711;-68
2023/06/18 06:25:10;;;;;;;;;;;;;;;26.81;38.35;96719.19;4235763;27;5608;-67
2023/06/18 06:27:12;;;;;;;;;;;;;;;26.82;38.25;96714.59;4232388;27;5691;-68
2023/06/18 06:29:15;;;;;;;;;;;;;;;26.84;38.19;96717.78;4224574;28;5914;-67
2023/06/18 06:31:18;;;;;;;;;;;;;;;26.85;38.07;96711.28;4225596;27;6430;-67
2023/06/18 06:33:22;;;;;;;;;;;;;;;26.86;38.36;96715.63;4223482;28;5700;-67
2023/06/18 06:35:27;;;;;;;;;;;;;;;26.85;38.15;96714.00;4224339;28;5708;-67
2023/06/18 06:37:32;;;;;;;;;;;;;;;26.83;38.15;96708.06;4224102;28;5605;-67
2023/06/18 06:39:35;;;;;;;;;;;;;;;26.82;38.11;96718.09;4224092;28;6493;-67
2023/06/18 06:41:38;;;;;;;;;;;;;;;26.85;38.36;96716.72;4224958;28;5615;-68
2023/06/18 06:43:40;;;;;;;;;;;;;;;26.86;38.28;96713.69;4224039;28;5684;-67
2023/06/18 06:45:43;;;;;;;;;;;;;;;26.88;38.34;96710.69;4223246;28;7360;-67
2023/06/18 06:47:48;;;;;;;;;;;;;;;26.92;38.39;96717.91;4222680;28;5684;-68
2023/06/18 06:49:52;;;;;;;;;;;;;;;26.94;38.38;96715.69;4223886;28;5609;-68
2023/06/18 06:51:56;;;;;;;;;;;;;;;26.96;38.36;96718.13;4224729;28;5124;-67
2023/06/18 06:53:59;;;;;;;;;;;;;;;27.02;38.71;96716.16;4224103;28;5671;-68
2023/06/18 06:56:02;;;;;;;;;;;;;;;27.05;38.66;96720.97;4222813;28;5853;-67
2023/06/18 06:58:05;;;;;;;;;;;;;;;27.04;38.39;96716.66;4223244;28;6297;-67
2023/06/18 07:00:10;;;;;;;;;;;;;;;27.05;38.49;96715.53;4224487;28;5731;-67
2023/06/18 07:02:13;;;;;;;;;;;;;;;27.07;38.55;96711.44;4224490;28;5139;-68
2023/06/18 07:04:16;;;;;;;;;;;;;;;27.09;38.59;96709.22;4223805;28;5608;-66
2023/06/18 07:06:21;;;;;;;;;;;;;;;27.07;38.75;96706.03;4223142;28;5585;-68
2023/06/18 07:08:24;;;;;;;;;;;;;;;27.06;38.83;96717.94;4224705;28;5732;-68
2023/06/18 07:10:27;;;;;;;;;;;;;;;27.00;38.76;96713.72;4205420;28;5548;-68
2023/06/18 07:12:29;;;;;;;;;;;;;;;26.89;38.71;96715.00;4223725;28;6285;-69
2023/06/18 07:14:32;;;;;;;;;;;;;;;26.86;38.88;96712.91;4221338;28;5752;-69
2023/06/18 07:16:35;;;;;;;;;;;;;;;26.83;39.05;96713.47;4223440;28;5768;-69
2023/06/18 07:18:38;;;;;;;;;;;;;;;26.82;38.99;96706.44;4223404;28;5900;-68
2023/06/18 07:20:41;;;;;;;;;;;;;;;26.79;39.22;96720.59;4224627;28;5671;-69
2023/06/18 07:22:45;;;;;;;;;;;;;;;26.78;39.43;96716.28;4223003;28;5755;-68
2023/06/18 07:24:48;;;;;;;;;;;;;;;26.75;39.18;96712.28;4223274;28;5590;-69
2023/06/18 07:26:51;;;;;;;;;;;;;;;26.65;39.53;96715.16;4222597;28;5699;-69
2023/06/18 07:28:54;;;;;;;;;;;;;;;26.60;39.61;96710.63;4223379;28;5771;-69
2023/06/18 07:30:57;;;;;;;;;;;;;;;26.56;39.29;96704.19;4224512;28;5880;-68
2023/06/18 07:33:00;;;;;;;;;;;;;;;26.59;39.25;96714.44;4223826;28;5139;-69
2023/06/18 07:35:03;;;;;;;;;;;;;;;26.57;39.42;96708.50;4223754;28;5767;-69
2023/06/18 07:37:06;;;;;;;;;;;;;;;26.50;39.33;96694.53;4220925;28;5698;-68
2023/06/18 07:39:10;;;;;;;;;;;;;;;26.42;39.79;96694.44;4224197;28;6432;-68
2023/06/18 07:41:13;;;;;;;;;;;;;;;26.39;39.66;96690.41;4223361;28;5089;-68
2023/06/18 07:43:16;;;;;;;;;;;;;;;26.37;39.54;96696.09;4223322;28;5706;-68
2023/06/18 07:45:19;;;;;;;;;;;;;;;26.39;39.91;96691.22;4222484;28;5784;-67
2023/06/18 07:47:22;;;;;;;;;;;;;;;26.44;39.49;96689.50;4225954;28;5704;-68
2023/06/18 07:49:25;;;;;;;;;;;;;;;26.42;39.61;96692.53;4221988;28;5684;-69
2023/06/18 07:51:28;;;;;;;;;;;;;;;26.39;39.28;96682.28;4221501;28;6574;-69
2023/06/18 07:53:32;;;;;;;;;;;;;;;26.38;39.39;96677.94;4223393;28;5655;-69
2023/06/18 07:55:36;;;;;;;;;;;;;;;26.37;39.40;96668.19;4222096;28;5711;-69
2023/06/18 07:57:39;;;;;;;;;;;;;;;26.37;39.14;96681.75;4222836;27;5787;-69
2023/06/18 07:59:42;;;;;;;;;;;;;;;26.37;39.29;96676.31;4222885;28;5624;-69
2023/06/18 08:01:45;;;;;;;;;;;;;;;26.40;39.38;96678.47;4221586;28;5676;-69
2023/06/18 08:03:48;;;;;;;;;;;;;;;26.39;38.92;96672.25;4224614;28;5881;-69
2023/06/18 08:05:51;;;;;;;;;;;;;;;26.41;39.10;96669.22;4221997;28;5743;-68
2023/06/18 08:07:54;;;;;;;;;;;;;;;26.39;38.97;96666.03;4224015;28;5811;-68
2023/06/18 08:09:57;;;;;;;;;;;;;;;26.38;39.29;96664.38;4222918;28;5601;-68
2023/06/18 08:12:01;;;;;;;;;;;;;;;26.36;39.22;96664.69;4224020;28;5707;-69
2023/06/18 08:14:04;;;;;;;;;;;;;;;26.37;38.84;96658.16;4224518;27;7710;-68
2023/06/18 08:16:07;;;;;;;;;;;;;;;26.37;38.86;96657.34;4221316;28;5688;-68
2023/06/18 08:18:10;;;;;;;;;;;;;;;26.37;38.74;96662.78;4222031;28;5615;-68
2023/06/18 08:20:13;;;;;;;;;;;;;;;26.35;38.63;96660.34;4223016;28;5731;-68
2023/06/18 08:22:17;;;;;;;;;;;;;;;26.36;39.08;96661.13;4222610;28;5958;-68
2023/06/18 08:24:20;;;;;;;;;;;;;;;26.37;38.82;96657.34;4220944;28;5618;-69
2023/06/18 08:26:22;;;;;;;;;;;;;;;26.38;38.97;96658.97;4222659;28;5905;-69
2023/06/18 08:28:27;;;;;;;;;;;;;;;26.39;38.96;96655.97;4222405;28;5707;-68
2023/06/18 08:30:30;;;;;;;;;;;;;;;26.41;38.66;96661.09;4222846;28;5779;-68
2023/06/18 08:32:33;;;;;;;;;;;;;;;26.40;38.56;96651.38;4220443;28;5609;-68
2023/06/18 08:34:42;;;;;;;;;;;;;;;26.40;38.54;96654.06;4220859;28;5115;-68
2023/06/18 08:36:46;;;;;;;;;;;;;;;26.38;38.79;96638.09;4224670;28;5821;-68
2023/06/18 08:38:49;;;;;;;;;;;;;;;26.38;38.50;96645.41;4222643;28;5713;-68
2023/06/18 08:40:54;;;;;;;;;;;;;;;26.40;38.65;96635.09;4222066;28;5605;-69
2023/06/18 08:42:57;;;;;;;;;;;;;;;26.41;38.55;96634.00;4224480;28;5960;-69
2023/06/18 08:45:10;;;;;;;;;;;;;;;26.42;38.52;96627.47;4221144;28;5699;-69
2023/06/18 08:47:13;;;;;;;;;;;;;;;26.42;38.53;96634.81;4221663;28;5692;-68
2023/06/18 08:49:18;;;;;;;;;;;;;;;26.43;38.35;96634.50;4222199;27;5613;-69
2023/06/18 08:51:22;;;;;;;;;;;;;;;26.44;38.02;96636.09;4222259;28;6495;-69
2023/06/18 08:53:34;;;;;;;;;;;;;;;26.45;37.91;96635.00;4220687;28;5995;-69
2023/06/18 08:55:40;;;;;;;;;;;;;;;26.46;37.92;96627.66;4203848;28;5947;-69
2023/06/18 08:57:48;;;;;;;;;;;;;;;26.47;37.78;96630.06;4221210;28;5573;-69
2023/06/18 08:59:53;;;;;;;;;;;;;;;26.48;37.76;96625.47;4222323;28;5111;-69
2023/06/18 09:01:57;;;;;;;;;;;;;;;26.50;37.69;96623.25;4222228;28;5768;-69
2023/06/18 09:04:00;;;;;;;;;;;;;;;26.53;37.37;96625.38;4222379;28;5629;-69
2023/06/18 09:06:04;;;;;;;;;;;;;;;26.54;37.45;96625.06;4222479;27;5605;-69
2023/06/18 09:08:07;;;;;;;;;;;;;;;26.53;37.65;96618.06;4222746;28;5797;-68
2023/06/18 09:10:10;;;;;;;;;;;;;;;26.48;37.44;96614.63;4222626;28;5787;-69
2023/06/18 09:12:13;;;;;;;;;;;;;;;26.40;37.23;96616.94;4224685;27;5789;-69
2023/06/18 09:14:16;;;;;;;;;;;;;;;26.40;37.09;96611.50;4221641;28;5782;-69
2023/06/18 09:16:19;;;;;;;;;;;;;;;26.43;37.06;96607.41;4219595;28;6535;-69
2023/06/18 09:18:25;;;;;;;;;;;;;;;26.45;37.29;96610.59;4223453;28;7691;-69
2023/06/18 09:20:29;;;;;;;;;;;;;;;26.47;37.18;96602.97;4222181;28;6335;-69
2023/06/18 09:22:45;;;;;;;;;;;;;;;26.49;36.98;96602.66;4222700;28;5711;-69
2023/06/18 09:24:56;;;;;;;;;;;;;;;26.49;37.20;96600.75;4221453;28;5899;-69
2023/06/18 09:27:01;;;;;;;;;;;;;;;26.50;36.96;96607.78;4221752;28;5824;-69
2023/06/18 09:29:05;;;;;;;;;;;;;;;26.50;37.16;96609.69;4223326;28;5688;-69
2023/06/18 09:31:08;;;;;;;;;;;;;;;26.52;36.94;96616.44;4222943;28;5818;-67
2023/06/18 09:33:12;;;;;;;;;;;;;;;26.53;37.00;96607.22;4222651;28;5480;-68
2023/06/18 09:35:18;;;;;;;;;;;;;;;26.56;37.08;96611.22;4222942;28;5779;-69
2023/06/18 09:37:21;;;;;;;;;;;;;;;26.57;37.35;96607.41;4221573;28;5597;-69
2023/06/18 09:39:25;;;;;;;;;;;;;;;26.57;37.46;96616.34;4222217;28;5711;-68
2023/06/18 09:41:28;;;;;;;;;;;;;;;26.57;37.23;96613.63;4221576;28;5669;-68
2023/06/18 09:43:35;;;;;;;;;;;;;;;26.58;37.32;96622.56;4221856;28;5688;-68
2023/06/18 09:45:38;;;;;;;;;;;;;;;26.59;37.48;96621.47;4223029;27;5710;-68
2023/06/18 09:47:44;;;;;;;;;;;;;;;26.56;37.50;96612.03;4221559;28;5835;-68
2023/06/18 09:49:47;;;;;;;;;;;;;;;26.57;37.58;96615.53;4222811;27;5683;-68
2023/06/18 09:51:52;;;;;;;;;;;;;;;26.56;37.85;96616.66;4223056;28;6442;-68
2023/06/18 09:53:59;;;;;;;;;;;;;;;26.59;37.64;96626.88;4222610;27;5692;-68
2023/06/18 09:56:11;;;;;;;;;;;;;;;26.58;37.71;96615.22;4221304;28;6023;-68
2023/06/18 09:58:14;;;;;;;;;;;;;;;26.60;37.72;96617.63;4222016;28;5602;-69
2023/06/18 10:00:19;;;;;;;;;;;;;;;26.62;37.81;96615.47;4221329;28;5724;-69
2023/06/18 10:02:26;;;;;;;;;;;;;;;26.62;37.86;96618.97;4221277;28;5699;-68
2023/06/18 10:04:29;;;;;;;;;;;;;;;26.64;38.11;96615.97;4227185;28;5676;-69
2023/06/18 10:06:32;;;;;;;;;;;;;;;26.63;37.92;96612.44;4225357;28;5085;-69
2023/06/18 10:08:39;;;;;;;;;;;;;;;26.63;38.14;96617.06;4223479;28;5710;-69
2023/06/18 10:10:42;;;;;;;;;;;;;;;26.63;38.13;96611.63;4223832;28;5694;-69
2023/06/18 10:12:49;;;;;;;;;;;;;;;26.63;38.12;96615.16;4223257;28;5712;-69
2023/06/18 10:14:55;;;;;;;;;;;;;;;26.61;37.85;96603.78;4223829;28;5700;-69
2023/06/18 10:17:03;;;;;;;;;;;;;;;26.61;37.99;96611.09;4224391;28;5808;-69
2023/06/18 10:19:12;;;;;;;;;;;;;;;26.60;37.40;96610.31;4225500;28;5687;-69
2023/06/18 10:21:17;;;;;;;;;;;;;;;26.60;37.77;96602.19;4225709;28;5672;-69
2023/06/18 10:23:21;;;;;;;;;;;;;;;26.61;37.30;96597.56;4223742;28;5688;-69
2023/06/18 10:25:25;;;;;;;;;;;;;;;26.61;37.42;96601.06;4222058;28;5752;-69
2023/06/18 10:27:29;;;;;;;;;;;;;;;26.62;37.34;96588.34;4226205;28;5601;-69
2023/06/18 10:29:33;;;;;;;;;;;;;;;26.63;37.52;96593.47;4224845;28;5727;-69
2023/06/18 10:31:37;;;;;;;;;;;;;;;26.64;37.14;96586.94;4224929;28;5680;-69
2023/06/18 10:33:40;;;;;;;;;;;;;;;26.66;37.18;96573.06;4224294;28;7527;-69
2023/06/18 10:35:44;;;;;;;;;;;;;;;26.66;37.37;96578.50;4223449;28;5718;-69
2023/06/18 10:37:47;;;;;;;;;;;;;;;26.68;36.94;96570.84;4224237;28;5917;-69
2023/06/18 10:39:51;;;;;;;;;;;;;;;26.72;37.00;96581.91;4223590;28;5668;-69
2023/06/18 10:41:56;;;;;;;;;;;;;;;26.72;37.04;96573.75;4224816;28;5759;-69
2023/06/18 10:43:58;;;;;;;;;;;;;;;26.73;36.81;96580.78;4225353;28;5751;-70
2023/06/18 10:46:09;;;;;;;;;;;;;;;26.76;36.97;96572.06;4223350;28;5907;-69
2023/06/18 10:48:16;;;;;;;;;;;;;;;26.82;37.04;96570.84;4224042;28;5696;-70
2023/06/18 10:50:19;;;;;;;;;;;;;;;26.83;36.58;96570.53;4223509;28;7719;-73
2023/06/18 10:52:27;;;;;;;;;;;;;;;26.86;36.57;96569.16;4223625;28;5120;-70
2023/06/18 10:54:33;;;;;;;;;;;;;;;26.88;36.46;96569.66;4224617;28;5847;-69
2023/06/18 10:56:37;;;;;;;;;;;;;;;26.89;36.81;96566.63;4225307;28;5095;-69
2023/06/18 10:58:43;;;;;;;;;;;;;;;26.91;36.51;96561.69;4223883;28;5816;-69
2023/06/18 11:00:46;;;;;;;;;;;;;;;26.92;36.50;96565.22;4225395;28;5653;-69
2023/06/18 11:02:58;;;;;;;;;;;;;;;26.94;36.78;96560.28;4223975;28;5605;-69
2023/06/18 11:05:01;;;;;;;;;;;;;;;26.96;36.56;96560.81;4224184;28;5684;-69
2023/06/18 11:07:12;;;;;;;;;;;;;;;26.98;36.66;96564.00;4225577;28;5784;-69
2023/06/18 11:09:15;;;;;;;;;;;;;;;27.01;36.32;96557.97;4223134;28;5819;-69
2023/06/18 11:11:18;;;;;;;;;;;;;;;27.03;36.53;96558.50;4223989;28;5680;-69
2023/06/18 11:13:30;;;;;;;;;;;;;;;27.07;36.36;96555.97;4224101;28;6318;-69
2023/06/18 11:15:54;;;;;;;;;;;;;;;27.07;36.19;96554.09;4223477;28;5690;-69
2023/06/18 11:18:00;;;;;;;;;;;;;;;27.09;36.25;96549.16;4225832;28;5680;-69
2023/06/18 11:20:05;;;;;;;;;;;;;;;27.10;36.40;96544.53;4222999;28;5777;-69
2023/06/18 11:22:08;;;;;;;;;;;;;;;27.11;36.23;96546.13;4222588;28;5084;-69
2023/06/18 11:24:11;;;;;;;;;;;;;;;27.13;36.13;96552.06;4223198;28;6314;-69
2023/06/18 11:26:15;;;;;;;;;;;;;;;27.12;36.10;96553.97;4221493;28;5706;-69
2023/06/18 11:28:18;;;;;;;;;;;;;;;27.15;36.04;96541.69;4223130;28;6374;-69
2023/06/18 11:30:22;;;;;;;;;;;;;;;27.18;35.86;96547.34;4223758;28;6500;-69
2023/06/18 11:32:27;;;;;;;;;;;;;;;27.21;35.95;96546.72;4223910;28;5703;-69
2023/06/18 11:34:30;;;;;;;;;;;;;;;27.23;35.69;96549.91;4223764;28;5704;-69
2023/06/18 11:36:33;;;;;;;;;;;;;;;27.26;35.70;96554.72;4223634;28;6004;-69
2023/06/18 11:38:36;;;;;;;;;;;;;;;27.30;36.01;96554.13;4223027;28;5793;-69
2023/06/18 11:40:48;;;;;;;;;;;;;;;27.32;35.81;96555.44;4221829;28;8494;-70
2023/06/18 11:42:53;;;;;;;;;;;;;;;27.37;36.05;96549.06;4223919;28;6342;-69
2023/06/18 11:44:57;;;;;;;;;;;;;;;27.39;35.93;96557.69;4222952;28;5111;-69
2023/06/18 11:47:01;;;;;;;;;;;;;;;27.42;36.02;96554.41;4221048;28;5704;-69
2023/06/18 11:49:13;;;;;;;;;;;;;;;27.45;35.71;96553.78;4222616;28;5780;-69
2023/06/18 11:51:16;;;;;;;;;;;;;;;27.46;35.84;96550.75;4224390;28;5616;-69
2023/06/18 11:53:19;;;;;;;;;;;;;;;27.48;35.68;96551.25;4223709;28;5691;-69
2023/06/18 11:55:22;;;;;;;;;;;;;;;27.51;35.53;96544.38;4222944;28;5865;-69
2023/06/18 11:57:26;;;;;;;;;;;;;;;27.53;35.76;96547.63;4221569;28;5848;-69
2023/06/18 11:59:29;;;;;;;;;;;;;;;27.56;35.76;96544.28;4222923;28;5624;-69
2023/06/18 12:01:33;;;;;;;;;;;;;;;27.58;35.82;96543.97;4223480;28;5844;-69
2023/06/18 12:03:36;;;;;;;;;;;;;;;27.60;35.74;96537.13;4222664;28;5664;-67
2023/06/18 12:05:41;;;;;;;;;;;;;;;27.62;35.74;96537.59;4223528;28;5805;-68
2023/06/18 12:07:45;;;;;;;;;;;;;;;27.64;35.61;96535.41;4223131;28;5620;-68
2023/06/18 12:09:49;;;;;;;;;;;;;;;27.66;35.20;96538.63;4222498;28;5649;-68
2023/06/18 12:12:02;;;;;;;;;;;;;;;27.68;35.36;96535.63;4223055;28;5857;-68
2023/06/18 12:14:20;;;;;;;;;;;;;;;27.70;35.35;96534.19;4222733;28;6893;-68
2023/06/18 12:16:29;;;;;;;;;;;;;;;27.70;35.16;96530.66;4222277;28;5723;-68
2023/06/18 12:18:36;;;;;;;;;;;;;;;27.70;35.37;96536.91;4222991;28;5608;-68
2023/06/18 12:20:41;;;;;;;;;;;;;;;27.70;35.35;96534.19;4222138;28;5787;-68
2023/06/18 12:22:44;;;;;;;;;;;;;;;27.70;35.24;96534.19;4221640;28;5687;-68
2023/06/18 12:24:47;;;;;;;;;;;;;;;27.68;35.27;96530.97;4223057;28;5880;-68
2023/06/18 12:26:50;;;;;;;;;;;;;;;27.68;35.29;96541.84;4222253;28;5665;-68
2023/06/18 12:28:53;;;;;;;;;;;;;;;27.68;35.10;96541.84;4221405;28;5702;-68
2023/06/18 12:30:56;;;;;;;;;;;;;;;27.67;35.33;96542.16;4221802;28;5826;-68
2023/06/18 12:33:04;;;;;;;;;;;;;;;27.65;35.26;96534.31;4224230;28;5817;-68
2023/06/18 12:35:11;;;;;;;;;;;;;;;27.66;34.93;96541.34;4224534;28;5699;-68
2023/06/18 12:37:16;;;;;;;;;;;;;;;27.64;34.91;96548.97;4222295;28;5883;-69
2023/06/18 12:39:18;;;;;;;;;;;;;;;27.64;34.83;96538.13;4223896;28;5629;-68
2023/06/18 12:41:23;;;;;;;;;;;;;;;27.63;34.81;96541.13;4220555;28;5711;-69
2023/06/18 12:43:26;;;;;;;;;;;;;;;27.64;34.64;96531.88;4221755;28;5711;-68
2023/06/18 12:45:32;;;;;;;;;;;;;;;27.64;34.49;96540.84;4223529;28;5699;-68
2023/06/18 12:47:40;;;;;;;;;;;;;;;27.66;34.52;96537.84;4223443;28;5612;-67
2023/06/18 12:49:44;;;;;;;;;;;;;;;27.65;34.63;96539.75;4224027;28;5780;-69
2023/06/18 12:51:49;;;;;;;;;;;;;;;27.67;34.67;96548.38;4222337;28;5684;-67
2023/06/18 12:53:54;;;;;;;;;;;;;;;27.66;34.39;96538.63;4223239;28;5806;-68
2023/06/18 12:55:58;;;;;;;;;;;;;;;27.66;34.35;96549.50;4222791;28;5771;-68
2023/06/18 12:58:01;;;;;;;;;;;;;;;27.67;34.48;96548.38;4223038;28;5866;-68
2023/06/18 13:00:16;;;;;;;;;;;;;;;27.70;34.31;96557.81;4222595;28;5740;-68
2023/06/18 13:02:20;;;;;;;;;;;;;;;27.70;34.43;96553.19;4220013;28;5631;-68
2023/06/18 13:04:23;;;;;;;;;;;;;;;27.70;34.33;96555.91;4221737;28;5791;-68
2023/06/18 13:06:29;;;;;;;;;;;;;;;27.69;34.18;96550.78;4221607;28;5616;-68
2023/06/18 13:08:32;;;;;;;;;;;;;;;27.70;34.17;96557.81;4221289;28;5680;-68
2023/06/18 13:10:36;;;;;;;;;;;;;;;27.67;34.22;96559.25;4223156;28;5863;-68
2023/06/18 13:12:40;;;;;;;;;;;;;;;27.68;34.26;96560.06;4220766;28;5710;-68
2023/06/18 13:14:43;;;;;;;;;;;;;;;27.66;34.22;96563.09;4223332;28;6453;-67
2023/06/18 13:16:46;;;;;;;;;;;;;;;27.66;34.29;96563.09;4220680;28;5807;-67
2023/06/18 13:18:49;;;;;;;;;;;;;;;27.67;34.25;96559.25;4223130;28;5589;-68
2023/06/18 13:20:54;;;;;;;;;;;;;;;27.68;34.31;96560.84;4221670;28;5668;-68
2023/06/18 13:22:57;;;;;;;;;;;;;;;27.68;34.31;96566.28;4222481;28;5668;-68
2023/06/18 13:25:00;;;;;;;;;;;;;;;27.69;34.20;96554.31;4223813;28;6402;-68
2023/06/18 13:27:05;;;;;;;;;;;;;;;27.70;34.20;96545.03;4221359;28;5791;-68
2023/06/18 13:29:09;;;;;;;;;;;;;;;27.71;33.97;96534.97;4223181;28;5700;-67
2023/06/18 13:31:12;;;;;;;;;;;;;;;27.73;34.07;96532.75;4221492;28;5711;-67
2023/06/18 13:33:14;;;;;;;;;;;;;;;27.73;33.97;96530.03;4221731;28;5819;-67
2023/06/18 13:35:18;;;;;;;;;;;;;;;27.73;34.09;96530.84;4220787;28;5704;-67
2023/06/18 13:37:21;;;;;;;;;;;;;;;27.73;34.24;96527.31;4223765;28;6313;-68
2023/06/18 13:39:24;;;;;;;;;;;;;;;27.72;34.21;96540.09;4225848;28;5815;-68
2023/06/18 13:41:27;;;;;;;;;;;;;;;27.72;34.30;96539.31;4225748;28;5601;-68
2023/06/18 13:43:31;;;;;;;;;;;;;;;27.72;33.97;96544.75;4223811;28;6399;-67
2023/06/18 13:45:34;;;;;;;;;;;;;;;27.71;34.12;96543.94;4225397;28;5624;-68
2023/06/18 13:47:37;;;;;;;;;;;;;;;27.71;34.33;96549.38;4224840;28;5617;-68
2023/06/18 13:49:40;;;;;;;;;;;;;;;27.71;34.24;96543.94;4225349;28;5616;-69
2023/06/18 13:51:43;;;;;;;;;;;;;;;27.71;34.19;96537.69;4226778;28;6472;-67
2023/06/18 13:53:46;;;;;;;;;;;;;;;27.72;34.50;96531.16;4226021;28;5791;-69
2023/06/18 13:55:50;;;;;;;;;;;;;;;27.74;34.46;96531.66;4224386;28;5261;-69
2023/06/18 13:57:52;;;;;;;;;;;;;;;27.77;34.29;96528.34;4224995;28;7039;-69
2023/06/18 14:00:00;;;;;;;;;;;;;;;27.79;34.33;96534.25;4226101;28;5712;-69
2023/06/18 14:02:03;;;;;;;;;;;;;;;27.81;34.32;96532.81;4209366;28;5714;-69
2023/06/18 14:04:07;;;;;;;;;;;;;;;27.80;34.27;96528.50;4224943;28;5707;-69
2023/06/18 14:06:10;;;;;;;;;;;;;;;27.79;34.08;96521.47;4224681;28;5723;-69
2023/06/18 14:08:13;;;;;;;;;;;;;;;27.80;34.21;96533.94;4224539;28;5849;-69
2023/06/18 14:10:16;;;;;;;;;;;;;;;27.82;34.32;96536.34;4227175;28;5608;-69
2023/06/18 14:12:19;;;;;;;;;;;;;;;27.81;34.32;96543.69;4225621;28;5604;-69
2023/06/18 14:14:25;;;;;;;;;;;;;;;27.80;34.39;96535.84;4225205;28;7741;-69
2023/06/18 14:16:30;;;;;;;;;;;;;;;27.79;34.46;96540.47;4224862;28;5970;-69
2023/06/18 14:18:34;;;;;;;;;;;;;;;27.79;34.27;96535.06;4222911;28;5608;-69
2023/06/18 14:20:37;;;;;;;;;;;;;;;27.82;34.52;96539.84;4224177;28;5655;-69
2023/06/18 14:22:40;;;;;;;;;;;;;;;27.82;34.60;96539.84;4224634;28;5786;-69
2023/06/18 14:24:43;;;;;;;;;;;;;;;27.82;34.65;96539.84;4225907;27;5691;-68
2023/06/18 14:26:46;;;;;;;;;;;;;;;27.81;34.58;96537.44;4224437;27;5617;-68
2023/06/18 14:28:49;;;;;;;;;;;;;;;27.81;34.68;96526.59;4225686;27;5814;-69
2023/06/18 14:30:52;;;;;;;;;;;;;;;27.82;34.58;96533.63;4226159;27;5648;-68
2023/06/18 14:32:56;;;;;;;;;;;;;;;27.81;34.76;96523.88;4225824;28;5677;-71
2023/06/18 14:34:59;;;;;;;;;;;;;;;27.79;34.60;96532.34;4225460;27;5681;-71
2023/06/18 14:37:02;;;;;;;;;;;;;;;27.80;34.82;96531.22;4229046;27;5679;-69
2023/06/18 14:39:05;;;;;;;;;;;;;;;27.79;34.81;96529.63;4228543;27;6463;-69
2023/06/18 14:41:08;;;;;;;;;;;;;;;27.80;34.89;96525.78;4224659;28;5679;-70
2023/06/18 14:43:11;;;;;;;;;;;;;;;27.80;35.01;96533.94;4224746;27;6425;-70
2023/06/18 14:45:14;;;;;;;;;;;;;;;27.82;34.71;96522.75;4226068;27;6283;-69
2023/06/18 14:47:17;;;;;;;;;;;;;;;27.83;34.82;96518.94;4224614;28;5608;-69
2023/06/18 14:49:21;;;;;;;;;;;;;;;27.84;35.10;96524.03;4224696;28;5645;-68
2023/06/18 14:51:25;;;;;;;;;;;;;;;27.86;34.92;96529.16;4224699;28;5886;-69
2023/06/18 14:53:28;;;;;;;;;;;;;;;27.87;34.98;96519.13;4226097;28;5608;-69
2023/06/18 14:55:32;;;;;;;;;;;;;;;27.88;35.19;96523.44;4224956;28;5134;-69
2023/06/18 14:57:35;;;;;;;;;;;;;;;27.87;35.07;96513.69;4223309;28;5737;-66
2023/06/18 14:59:40;;;;;;;;;;;;;;;27.88;35.22;96515.28;4225736;28;6290;-68
2023/06/18 15:01:42;;;;;;;;;;;;;;;27.90;35.38;96518.50;4224827;28;5954;-67
2023/06/18 15:03:46;;;;;;;;;;;;;;;27.91;35.33;96504.59;4223427;28;5687;-67
2023/06/18 15:05:50;;;;;;;;;;;;;;;27.91;35.44;96504.59;4226498;28;5660;-66
2023/06/18 15:07:53;;;;;;;;;;;;;;;27.91;35.35;96503.81;4225206;28;5617;-66
2023/06/18 15:09:56;;;;;;;;;;;;;;;27.92;35.47;96505.41;4225884;28;5598;-66
2023/06/18 15:11:59;;;;;;;;;;;;;;;27.92;35.30;96508.13;4207903;28;5613;-65
2023/06/18 15:14:02;;;;;;;;;;;;;;;27.94;35.37;96503.16;4223568;28;5808;-68
2023/06/18 15:16:05;;;;;;;;;;;;;;;27.95;35.64;96500.13;4227815;27;5656;-68
2023/06/18 15:18:08;;;;;;;;;;;;;;;27.96;35.79;96501.75;4205443;28;5797;-69
2023/06/18 15:20:13;;;;;;;;;;;;;;;27.93;35.86;96494.22;4225955;28;5760;-68
2023/06/18 15:22:18;;;;;;;;;;;;;;;27.96;35.86;96500.94;4223644;28;5612;-68
2023/06/18 15:24:21;;;;;;;;;;;;;;;27.96;36.01;96500.94;4224039;28;5775;-67
2023/06/18 15:26:26;;;;;;;;;;;;;;;27.96;35.94;96504.47;4224493;27;6386;-68
2023/06/18 15:28:29;;;;;;;;;;;;;;;27.97;35.85;96502.53;4223661;27;5873;-68
2023/06/18 15:30:32;;;;;;;;;;;;;;;27.97;36.15;96505.25;4220788;27;7715;-76
2023/06/18 15:32:35;;;;;;;;;;;;;;;27.97;36.03;96502.53;4225353;27;5676;-73
2023/06/18 15:34:38;;;;;;;;;;;;;;;27.96;36.20;96495.50;4226660;27;5655;-76
2023/06/18 15:36:41;;;;;;;;;;;;;;;27.97;36.08;96497.09;4226830;28;5900;-73
2023/06/18 15:38:48;;;;;;;;;;;;;;;27.97;36.21;96497.09;4225908;27;5762;-75
2023/06/18 15:40:51;;;;;;;;;;;;;;;27.95;36.06;96491.19;4227865;27;5723;-83
2023/06/18 15:42:56;;;;;;;;;;;;;;;27.94;36.01;96486.88;4225284;27;6099;-82
2023/06/18 15:44:59;;;;;;;;;;;;;;;27.91;36.28;96485.59;4228235;27;5605;-73
2023/06/18 15:47:02;;;;;;;;;;;;;;;27.91;36.27;96477.44;4224772;27;5720;-73
2023/06/18 15:49:05;;;;;;;;;;;;;;;27.92;36.28;96483.66;4223382;27;5759;-73
2023/06/18 15:51:09;;;;;;;;;;;;;;;27.91;36.21;96477.44;4224516;28;5623;-73
2023/06/18 15:53:12;;;;;;;;;;;;;;;27.92;36.21;96489.09;4224060;28;5846;-74
2023/06/18 15:55:16;;;;;;;;;;;;;;;27.91;36.17;96484.78;4225893;28;5763;-73
2023/06/18 15:57:19;;;;;;;;;;;;;;;27.90;36.15;96492.13;4225992;27;5903;-74
2023/06/18 15:59:21;;;;;;;;;;;;;;;27.89;36.14;96495.97;4223354;28;5598;-74
2023/06/18 16:01:24;;;;;;;;;;;;;;;27.88;36.30;96490.84;4224048;28;5655;-73
2023/06/18 16:03:27;;;;;;;;;;;;;;;27.87;36.46;96487.34;4224161;28;5703;-73
2023/06/18 16:05:30;;;;;;;;;;;;;;;27.87;36.32;96476.47;4226598;27;5194;-73
2023/06/18 16:07:33;;;;;;;;;;;;;;;27.87;36.52;96479.19;4225786;28;5707;-73
2023/06/18 16:09:36;;;;;;;;;;;;;;;27.88;36.52;96469.13;4226621;27;6340;-73
2023/06/18 16:11:40;;;;;;;;;;;;;;;27.90;36.38;96466.88;4225437;27;5715;-73
2023/06/18 16:13:43;;;;;;;;;;;;;;;27.91;36.46;96465.78;4223822;28;6476;-72
2023/06/18 16:15:49;;;;;;;;;;;;;;;27.91;36.35;96450.28;4223844;28;5592;-71
2023/06/18 16:17:52;;;;;;;;;;;;;;;27.92;36.44;96456.50;4223777;28;5772;-71
2023/06/18 16:19:55;;;;;;;;;;;;;;;27.93;36.51;96453.47;4225150;28;5589;-72
2023/06/18 16:21:58;;;;;;;;;;;;;;;27.93;36.54;96447.25;4224999;28;5733;-72